sensor_id;sensor_type;location;lat;lon;timestamp;P1;durP1;ratioP1;P2;durP2;ratioP2
50549;SDS011;36505;52.512;13.460;2022-08-19T00:01:52;12.05;;;8.68;;
50549;SDS011;36505;52.512;13.460;2022-08-19T00:04:20;11.07;;;8.05;;
50549;SDS011;36505;52.512;13.460;2022-08-19T00:06:49;11.48;;;8.77;;
50549;SDS011;36505;52.512;13.460;2022-08-19T00:09:15;11.75;;;7.72;;
50549;SDS011;36505;52.512;13.460;2022-08-19T00:11:43;14.10;;;8.05;;
50549;SDS011;36505;52.512;13.460;2022-08-19T00:14:10;10.80;;;8.50;;
50549;SDS011;36505;52.512;13.460;2022-08-19T00:16:37;14.88;;;8.93;;
50549;SDS011;36505;52.512;13.460;2022-08-19T00:19:03;13.75;;;9.23;;
50549;SDS011;36505;52.512;13.460;2022-08-19T00:21:29;10.07;;;8.10;;
50549;SDS011;36505;52.512;13.460;2022-08-19T00:23:56;10.75;;;8.52;;
50549;SDS011;36505;52.512;13.460;2022-08-19T00:26:23;14.38;;;9.23;;
50549;SDS011;36505;52.512;13.460;2022-08-19T00:28:50;10.45;;;8.82;;
50549;SDS011;36505;52.512;13.460;2022-08-19T00:31:15;13.82;;;8.95;;
50549;SDS011;36505;52.512;13.460;2022-08-19T00:33:42;11.70;;;9.77;;
50549;SDS011;36505;52.512;13.460;2022-08-19T00:36:08;10.30;;;8.38;;
50549;SDS011;36505;52.512;13.460;2022-08-19T00:38:37;15.45;;;9.93;;
50549;SDS011;36505;52.512;13.460;2022-08-19T00:41:08;14.10;;;8.65;;
50549;SDS011;36505;52.512;13.460;2022-08-19T00:43:35;14.77;;;9.52;;
50549;SDS011;36505;52.512;13.460;2022-08-19T00:46:00;13.52;;;9.57;;
50549;SDS011;36505;52.512;13.460;2022-08-19T00:48:30;14.68;;;9.40;;
50549;SDS011;36505;52.512;13.460;2022-08-19T00:50:57;18.00;;;10.20;;
50549;SDS011;36505;52.512;13.460;2022-08-19T00:53:24;14.52;;;10.20;;
50549;SDS011;36505;52.512;13.460;2022-08-19T00:55:52;14.60;;;9.70;;
50549;SDS011;36505;52.512;13.460;2022-08-19T00:58:22;15.23;;;9.82;;
50549;SDS011;36505;52.512;13.460;2022-08-19T01:00:52;17.13;;;11.20;;
50549;SDS011;36505;52.512;13.460;2022-08-19T01:03:19;13.20;;;9.23;;
50549;SDS011;36505;52.512;13.460;2022-08-19T01:05:45;12.35;;;10.02;;
50549;SDS011;36505;52.512;13.460;2022-08-19T01:08:13;11.07;;;9.45;;
50549;SDS011;36505;52.512;13.460;2022-08-19T01:10:42;14.30;;;10.63;;
50549;SDS011;36505;52.512;13.460;2022-08-19T01:13:10;12.15;;;9.23;;
50549;SDS011;36505;52.512;13.460;2022-08-19T01:15:41;12.30;;;10.25;;
50549;SDS011;36505;52.512;13.460;2022-08-19T01:18:12;12.77;;;9.82;;
50549;SDS011;36505;52.512;13.460;2022-08-19T01:20:41;14.93;;;9.65;;
50549;SDS011;36505;52.512;13.460;2022-08-19T01:23:07;14.90;;;10.43;;
50549;SDS011;36505;52.512;13.460;2022-08-19T01:25:39;12.40;;;9.25;;
50549;SDS011;36505;52.512;13.460;2022-08-19T01:28:14;12.82;;;10.10;;
50549;SDS011;36505;52.512;13.460;2022-08-19T01:30:45;14.98;;;10.73;;
50549;SDS011;36505;52.512;13.460;2022-08-19T01:33:11;13.55;;;10.63;;
50549;SDS011;36505;52.512;13.460;2022-08-19T01:35:37;13.63;;;9.50;;
50549;SDS011;36505;52.512;13.460;2022-08-19T01:38:04;15.32;;;11.23;;
50549;SDS011;36505;52.512;13.460;2022-08-19T01:40:34;15.50;;;11.05;;
50549;SDS011;36505;52.512;13.460;2022-08-19T01:43:01;17.52;;;11.65;;
50549;SDS011;36505;52.512;13.460;2022-08-19T01:45:28;17.65;;;10.50;;
50549;SDS011;36505;52.512;13.460;2022-08-19T01:47:56;15.38;;;10.57;;
50549;SDS011;36505;52.512;13.460;2022-08-19T01:50:22;13.68;;;9.60;;
50549;SDS011;36505;52.512;13.460;2022-08-19T01:52:48;14.45;;;10.55;;
50549;SDS011;36505;52.512;13.460;2022-08-19T01:55:15;12.60;;;10.30;;
50549;SDS011;36505;52.512;13.460;2022-08-19T01:57:43;14.18;;;10.82;;
50549;SDS011;36505;52.512;13.460;2022-08-19T02:00:12;13.68;;;9.52;;
50549;SDS011;36505;52.512;13.460;2022-08-19T02:02:41;14.35;;;9.57;;
50549;SDS011;36505;52.512;13.460;2022-08-19T02:05:07;14.25;;;10.07;;
50549;SDS011;36505;52.512;13.460;2022-08-19T02:07:33;15.38;;;9.90;;
50549;SDS011;36505;52.512;13.460;2022-08-19T02:10:01;13.20;;;9.57;;
50549;SDS011;36505;52.512;13.460;2022-08-19T02:12:32;12.90;;;9.48;;
50549;SDS011;36505;52.512;13.460;2022-08-19T02:14:58;14.23;;;10.38;;
50549;SDS011;36505;52.512;13.460;2022-08-19T02:17:24;12.70;;;9.70;;
50549;SDS011;36505;52.512;13.460;2022-08-19T02:19:50;13.15;;;10.23;;
50549;SDS011;36505;52.512;13.460;2022-08-19T02:22:15;14.63;;;10.57;;
50549;SDS011;36505;52.512;13.460;2022-08-19T02:24:40;13.27;;;10.68;;
50549;SDS011;36505;52.512;13.460;2022-08-19T02:27:06;12.98;;;9.80;;
50549;SDS011;36505;52.512;13.460;2022-08-19T02:29:31;15.57;;;10.80;;
50549;SDS011;36505;52.512;13.460;2022-08-19T02:31:57;13.80;;;10.38;;
50549;SDS011;36505;52.512;13.460;2022-08-19T02:34:23;11.40;;;9.32;;
50549;SDS011;36505;52.512;13.460;2022-08-19T02:36:50;14.30;;;9.60;;
50549;SDS011;36505;52.512;13.460;2022-08-19T02:39:16;13.75;;;9.27;;
50549;SDS011;36505;52.512;13.460;2022-08-19T02:41:42;11.57;;;9.35;;
50549;SDS011;36505;52.512;13.460;2022-08-19T02:44:07;12.93;;;9.27;;
50549;SDS011;36505;52.512;13.460;2022-08-19T02:46:32;12.38;;;9.52;;
50549;SDS011;36505;52.512;13.460;2022-08-19T02:49:02;14.23;;;9.48;;
50549;SDS011;36505;52.512;13.460;2022-08-19T02:51:41;12.20;;;9.90;;
50549;SDS011;36505;52.512;13.460;2022-08-19T02:54:08;13.60;;;9.75;;
50549;SDS011;36505;52.512;13.460;2022-08-19T02:56:35;13.98;;;9.20;;
50549;SDS011;36505;52.512;13.460;2022-08-19T02:59:03;14.35;;;10.02;;
50549;SDS011;36505;52.512;13.460;2022-08-19T03:01:33;11.52;;;9.50;;
50549;SDS011;36505;52.512;13.460;2022-08-19T03:04:00;12.48;;;10.00;;
50549;SDS011;36505;52.512;13.460;2022-08-19T03:06:28;12.45;;;10.00;;
50549;SDS011;36505;52.512;13.460;2022-08-19T03:08:54;17.23;;;9.75;;
50549;SDS011;36505;52.512;13.460;2022-08-19T03:11:24;11.10;;;9.20;;
50549;SDS011;36505;52.512;13.460;2022-08-19T03:13:52;12.23;;;9.20;;
50549;SDS011;36505;52.512;13.460;2022-08-19T03:16:18;16.42;;;9.80;;
50549;SDS011;36505;52.512;13.460;2022-08-19T03:18:45;11.45;;;9.48;;
50549;SDS011;36505;52.512;13.460;2022-08-19T03:21:14;11.15;;;9.23;;
50549;SDS011;36505;52.512;13.460;2022-08-19T03:23:44;13.63;;;9.55;;
50549;SDS011;36505;52.512;13.460;2022-08-19T03:26:10;12.63;;;9.45;;
50549;SDS011;36505;52.512;13.460;2022-08-19T03:28:35;13.60;;;10.05;;
50549;SDS011;36505;52.512;13.460;2022-08-19T03:31:03;10.98;;;9.07;;
50549;SDS011;36505;52.512;13.460;2022-08-19T03:33:34;12.65;;;9.05;;
50549;SDS011;36505;52.512;13.460;2022-08-19T03:36:03;12.35;;;9.00;;
50549;SDS011;36505;52.512;13.460;2022-08-19T03:38:28;12.27;;;9.20;;
50549;SDS011;36505;52.512;13.460;2022-08-19T03:40:54;12.80;;;10.40;;
50549;SDS011;36505;52.512;13.460;2022-08-19T03:43:20;10.38;;;8.38;;
50549;SDS011;36505;52.512;13.460;2022-08-19T03:45:46;12.68;;;9.05;;
50549;SDS011;36505;52.512;13.460;2022-08-19T03:48:12;15.23;;;9.48;;
50549;SDS011;36505;52.512;13.460;2022-08-19T03:50:40;10.27;;;9.07;;
50549;SDS011;36505;52.512;13.460;2022-08-19T03:53:06;12.25;;;9.13;;
50549;SDS011;36505;52.512;13.460;2022-08-19T03:55:33;14.05;;;8.30;;
50549;SDS011;36505;52.512;13.460;2022-08-19T03:58:03;10.20;;;8.32;;
50549;SDS011;36505;52.512;13.460;2022-08-19T04:00:28;13.25;;;9.55;;
50549;SDS011;36505;52.512;13.460;2022-08-19T04:02:54;11.60;;;9.18;;
50549;SDS011;36505;52.512;13.460;2022-08-19T04:05:19;11.80;;;9.15;;
50549;SDS011;36505;52.512;13.460;2022-08-19T04:07:45;10.98;;;9.20;;
50549;SDS011;36505;52.512;13.460;2022-08-19T04:10:11;12.77;;;8.90;;
50549;SDS011;36505;52.512;13.460;2022-08-19T04:12:36;11.55;;;9.25;;
50549;SDS011;36505;52.512;13.460;2022-08-19T04:15:02;12.10;;;9.52;;
50549;SDS011;36505;52.512;13.460;2022-08-19T04:17:28;13.10;;;8.85;;
50549;SDS011;36505;52.512;13.460;2022-08-19T04:19:53;12.60;;;9.55;;
50549;SDS011;36505;52.512;13.460;2022-08-19T04:22:18;11.63;;;9.68;;
50549;SDS011;36505;52.512;13.460;2022-08-19T04:24:44;14.98;;;9.88;;
50549;SDS011;36505;52.512;13.460;2022-08-19T04:27:09;15.75;;;9.85;;
50549;SDS011;36505;52.512;13.460;2022-08-19T04:29:34;15.25;;;10.85;;
50549;SDS011;36505;52.512;13.460;2022-08-19T04:32:00;15.25;;;10.20;;
50549;SDS011;36505;52.512;13.460;2022-08-19T04:34:26;13.40;;;9.93;;
50549;SDS011;36505;52.512;13.460;2022-08-19T04:36:54;13.10;;;11.02;;
50549;SDS011;36505;52.512;13.460;2022-08-19T04:39:21;16.08;;;11.00;;
50549;SDS011;36505;52.512;13.460;2022-08-19T04:42:08;15.05;;;11.63;;
50549;SDS011;36505;52.512;13.460;2022-08-19T04:44:52;15.07;;;11.13;;
50549;SDS011;36505;52.512;13.460;2022-08-19T04:47:18;13.10;;;10.52;;
50549;SDS011;36505;52.512;13.460;2022-08-19T04:49:43;15.02;;;10.13;;
50549;SDS011;36505;52.512;13.460;2022-08-19T04:52:08;13.63;;;9.80;;
50549;SDS011;36505;52.512;13.460;2022-08-19T04:54:34;14.75;;;10.25;;
50549;SDS011;36505;52.512;13.460;2022-08-19T04:56:59;14.25;;;9.63;;
50549;SDS011;36505;52.512;13.460;2022-08-19T04:59:24;12.38;;;9.63;;
50549;SDS011;36505;52.512;13.460;2022-08-19T05:01:50;12.75;;;9.90;;
50549;SDS011;36505;52.512;13.460;2022-08-19T05:04:16;11.13;;;9.38;;
50549;SDS011;36505;52.512;13.460;2022-08-19T05:06:44;14.95;;;10.43;;
50549;SDS011;36505;52.512;13.460;2022-08-19T05:09:09;14.18;;;11.00;;
50549;SDS011;36505;52.512;13.460;2022-08-19T05:11:35;14.38;;;10.25;;
50549;SDS011;36505;52.512;13.460;2022-08-19T05:14:05;13.88;;;9.93;;
50549;SDS011;36505;52.512;13.460;2022-08-19T05:16:32;17.80;;;10.20;;
50549;SDS011;36505;52.512;13.460;2022-08-19T05:18:58;13.45;;;10.38;;
50549;SDS011;36505;52.512;13.460;2022-08-19T05:21:42;12.73;;;10.63;;
50549;SDS011;36505;52.512;13.460;2022-08-19T05:24:27;12.88;;;11.02;;
50549;SDS011;36505;52.512;13.460;2022-08-19T05:26:53;12.00;;;9.82;;
50549;SDS011;36505;52.512;13.460;2022-08-19T05:29:21;15.18;;;9.43;;
50549;SDS011;36505;52.512;13.460;2022-08-19T05:48:01;15.55;;;9.50;;
50549;SDS011;36505;52.512;13.460;2022-08-19T05:57:41;11.23;;;10.00;;
50549;SDS011;36505;52.512;13.460;2022-08-19T06:00:29;13.15;;;9.50;;
50549;SDS011;36505;52.512;13.460;2022-08-19T06:03:39;12.52;;;8.90;;
50549;SDS011;36505;52.512;13.460;2022-08-19T06:06:08;13.43;;;9.88;;
50549;SDS011;36505;52.512;13.460;2022-08-19T06:08:40;17.17;;;10.10;;
50549;SDS011;36505;52.512;13.460;2022-08-19T06:14:24;15.18;;;10.27;;
50549;SDS011;36505;52.512;13.460;2022-08-19T06:17:18;14.18;;;9.65;;
50549;SDS011;36505;52.512;13.460;2022-08-19T06:19:46;12.52;;;9.40;;
50549;SDS011;36505;52.512;13.460;2022-08-19T06:22:11;15.18;;;10.40;;
50549;SDS011;36505;52.512;13.460;2022-08-19T06:24:38;15.52;;;9.98;;
50549;SDS011;36505;52.512;13.460;2022-08-19T06:27:03;16.42;;;10.45;;
50549;SDS011;36505;52.512;13.460;2022-08-19T06:29:30;13.57;;;10.60;;
50549;SDS011;36505;52.512;13.460;2022-08-19T06:31:57;12.93;;;10.35;;
50549;SDS011;36505;52.512;13.460;2022-08-19T06:34:25;15.73;;;10.98;;
50549;SDS011;36505;52.512;13.460;2022-08-19T06:36:53;12.23;;;10.35;;
50549;SDS011;36505;52.512;13.460;2022-08-19T06:44:25;18.08;;;11.15;;
50549;SDS011;36505;52.512;13.460;2022-08-19T06:46:53;14.93;;;10.75;;
50549;SDS011;36505;52.512;13.460;2022-08-19T06:49:19;13.32;;;10.50;;
50549;SDS011;36505;52.512;13.460;2022-08-19T06:51:46;14.65;;;11.13;;
50549;SDS011;36505;52.512;13.460;2022-08-19T06:54:13;13.43;;;10.82;;
50549;SDS011;36505;52.512;13.460;2022-08-19T06:56:40;13.38;;;11.02;;
50549;SDS011;36505;52.512;13.460;2022-08-19T06:59:09;15.15;;;10.93;;
50549;SDS011;36505;52.512;13.460;2022-08-19T07:01:37;19.27;;;10.97;;
50549;SDS011;36505;52.512;13.460;2022-08-19T07:04:07;11.75;;;10.00;;
50549;SDS011;36505;52.512;13.460;2022-08-19T07:06:34;16.98;;;11.48;;
50549;SDS011;36505;52.512;13.460;2022-08-19T07:09:01;14.23;;;11.30;;
50549;SDS011;36505;52.512;13.460;2022-08-19T07:11:28;16.52;;;12.07;;
50549;SDS011;36505;52.512;13.460;2022-08-19T07:13:53;14.20;;;11.50;;
50549;SDS011;36505;52.512;13.460;2022-08-19T07:16:20;13.82;;;11.52;;
50549;SDS011;36505;52.512;13.460;2022-08-19T07:18:46;16.35;;;12.05;;
50549;SDS011;36505;52.512;13.460;2022-08-19T07:21:14;13.35;;;11.95;;
50549;SDS011;36505;52.512;13.460;2022-08-19T07:23:49;14.82;;;12.18;;
50549;SDS011;36505;52.512;13.460;2022-08-19T07:28:49;14.63;;;11.60;;
50549;SDS011;36505;52.512;13.460;2022-08-19T07:31:17;16.08;;;12.20;;
50549;SDS011;36505;52.512;13.460;2022-08-19T07:33:44;18.63;;;11.25;;
50549;SDS011;36505;52.512;13.460;2022-08-19T07:36:12;16.67;;;11.32;;
50549;SDS011;36505;52.512;13.460;2022-08-19T07:38:40;16.73;;;12.65;;
50549;SDS011;36505;52.512;13.460;2022-08-19T07:41:08;14.75;;;11.68;;
50549;SDS011;36505;52.512;13.460;2022-08-19T07:43:36;16.95;;;11.73;;
50549;SDS011;36505;52.512;13.460;2022-08-19T07:46:05;16.00;;;11.80;;
50549;SDS011;36505;52.512;13.460;2022-08-19T07:48:32;15.73;;;11.35;;
50549;SDS011;36505;52.512;13.460;2022-08-19T07:50:59;15.60;;;11.50;;
50549;SDS011;36505;52.512;13.460;2022-08-19T07:53:29;16.75;;;12.63;;
50549;SDS011;36505;52.512;13.460;2022-08-19T07:55:56;16.80;;;12.52;;
50549;SDS011;36505;52.512;13.460;2022-08-19T07:58:28;23.13;;;13.60;;
50549;SDS011;36505;52.512;13.460;2022-08-19T08:00:58;21.48;;;13.85;;
50549;SDS011;36505;52.512;13.460;2022-08-19T08:03:25;16.65;;;12.63;;
50549;SDS011;36505;52.512;13.460;2022-08-19T08:06:10;21.38;;;13.13;;
50549;SDS011;36505;52.512;13.460;2022-08-19T08:08:55;16.73;;;12.48;;
50549;SDS011;36505;52.512;13.460;2022-08-19T08:11:36;13.85;;;12.35;;
50549;SDS011;36505;52.512;13.460;2022-08-19T08:14:15;17.52;;;12.38;;
50549;SDS011;36505;52.512;13.460;2022-08-19T08:16:43;16.17;;;11.85;;
50549;SDS011;36505;52.512;13.460;2022-08-19T08:19:10;20.15;;;12.82;;
50549;SDS011;36505;52.512;13.460;2022-08-19T08:21:36;19.15;;;12.93;;
50549;SDS011;36505;52.512;13.460;2022-08-19T08:24:02;15.25;;;12.07;;
50549;SDS011;36505;52.512;13.460;2022-08-19T08:26:27;14.25;;;12.18;;
50549;SDS011;36505;52.512;13.460;2022-08-19T08:28:53;17.33;;;12.40;;
50549;SDS011;36505;52.512;13.460;2022-08-19T08:31:18;17.48;;;12.52;;
50549;SDS011;36505;52.512;13.460;2022-08-19T08:33:45;17.17;;;12.82;;
50549;SDS011;36505;52.512;13.460;2022-08-19T08:36:13;18.67;;;12.60;;
50549;SDS011;36505;52.512;13.460;2022-08-19T08:38:40;17.10;;;11.30;;
50549;SDS011;36505;52.512;13.460;2022-08-19T08:41:13;17.02;;;12.70;;
50549;SDS011;36505;52.512;13.460;2022-08-19T08:43:48;15.00;;;12.10;;
50549;SDS011;36505;52.512;13.460;2022-08-19T08:51:34;15.68;;;11.98;;
50549;SDS011;36505;52.512;13.460;2022-08-19T08:54:07;15.63;;;11.88;;
50549;SDS011;36505;52.512;13.460;2022-08-19T08:56:38;18.63;;;11.60;;
50549;SDS011;36505;52.512;13.460;2022-08-19T08:59:07;16.45;;;11.80;;
50549;SDS011;36505;52.512;13.460;2022-08-19T09:01:42;19.92;;;12.20;;
50549;SDS011;36505;52.512;13.460;2022-08-19T09:04:07;14.25;;;12.05;;
50549;SDS011;36505;52.512;13.460;2022-08-19T09:09:40;18.05;;;13.65;;
50549;SDS011;36505;52.512;13.460;2022-08-19T09:14:50;16.42;;;12.18;;
50549;SDS011;36505;52.512;13.460;2022-08-19T09:17:30;20.50;;;12.55;;
50549;SDS011;36505;52.512;13.460;2022-08-19T09:20:06;17.85;;;12.88;;
50549;SDS011;36505;52.512;13.460;2022-08-19T09:22:39;17.35;;;11.75;;
50549;SDS011;36505;52.512;13.460;2022-08-19T09:25:09;24.05;;;13.02;;
50549;SDS011;36505;52.512;13.460;2022-08-19T09:27:36;16.90;;;12.77;;
50549;SDS011;36505;52.512;13.460;2022-08-19T09:30:04;14.27;;;11.70;;
50549;SDS011;36505;52.512;13.460;2022-08-19T09:32:32;16.35;;;11.82;;
50549;SDS011;36505;52.512;13.460;2022-08-19T09:34:57;15.55;;;11.80;;
50549;SDS011;36505;52.512;13.460;2022-08-19T09:37:26;21.27;;;12.48;;
50549;SDS011;36505;52.512;13.460;2022-08-19T09:39:52;14.02;;;11.82;;
50549;SDS011;36505;52.512;13.460;2022-08-19T09:42:18;13.13;;;11.00;;
50549;SDS011;36505;52.512;13.460;2022-08-19T09:44:44;16.23;;;12.38;;
50549;SDS011;36505;52.512;13.460;2022-08-19T09:47:12;13.50;;;10.98;;
50549;SDS011;36505;52.512;13.460;2022-08-19T09:49:38;14.88;;;10.98;;
50549;SDS011;36505;52.512;13.460;2022-08-19T09:52:08;13.77;;;12.13;;
50549;SDS011;36505;52.512;13.460;2022-08-19T09:54:35;14.55;;;11.50;;
50549;SDS011;36505;52.512;13.460;2022-08-19T09:57:00;14.93;;;11.23;;
50549;SDS011;36505;52.512;13.460;2022-08-19T09:59:26;15.43;;;11.63;;
50549;SDS011;36505;52.512;13.460;2022-08-19T10:01:52;15.75;;;12.15;;
50549;SDS011;36505;52.512;13.460;2022-08-19T10:04:17;19.23;;;11.20;;
50549;SDS011;36505;52.512;13.460;2022-08-19T10:06:43;16.30;;;12.02;;
50549;SDS011;36505;52.512;13.460;2022-08-19T10:09:09;15.57;;;11.55;;
50549;SDS011;36505;52.512;13.460;2022-08-19T10:11:36;13.88;;;10.95;;
50549;SDS011;36505;52.512;13.460;2022-08-19T10:14:04;16.98;;;11.90;;
50549;SDS011;36505;52.512;13.460;2022-08-19T10:16:30;18.65;;;11.63;;
50549;SDS011;36505;52.512;13.460;2022-08-19T10:18:56;17.42;;;11.63;;
50549;SDS011;36505;52.512;13.460;2022-08-19T10:21:23;19.40;;;11.13;;
50549;SDS011;36505;52.512;13.460;2022-08-19T10:23:52;14.80;;;11.48;;
50549;SDS011;36505;52.512;13.460;2022-08-19T10:26:21;15.38;;;11.73;;
50549;SDS011;36505;52.512;13.460;2022-08-19T10:28:48;15.95;;;11.23;;
50549;SDS011;36505;52.512;13.460;2022-08-19T10:31:19;19.35;;;13.13;;
50549;SDS011;36505;52.512;13.460;2022-08-19T10:33:47;15.68;;;10.90;;
50549;SDS011;36505;52.512;13.460;2022-08-19T10:36:15;12.85;;;10.10;;
50549;SDS011;36505;52.512;13.460;2022-08-19T10:38:45;17.08;;;11.07;;
50549;SDS011;36505;52.512;13.460;2022-08-19T10:41:15;17.52;;;11.43;;
50549;SDS011;36505;52.512;13.460;2022-08-19T10:43:52;15.65;;;10.32;;
50549;SDS011;36505;52.512;13.460;2022-08-19T10:46:19;13.93;;;10.05;;
50549;SDS011;36505;52.512;13.460;2022-08-19T10:48:47;13.20;;;10.07;;
50549;SDS011;36505;52.512;13.460;2022-08-19T10:51:12;14.30;;;10.25;;
50549;SDS011;36505;52.512;13.460;2022-08-19T10:53:56;17.58;;;10.57;;
50549;SDS011;36505;52.512;13.460;2022-08-19T10:56:23;15.43;;;10.45;;
50549;SDS011;36505;52.512;13.460;2022-08-19T10:59:07;14.25;;;9.75;;
50549;SDS011;36505;52.512;13.460;2022-08-19T11:01:34;12.02;;;9.90;;
50549;SDS011;36505;52.512;13.460;2022-08-19T11:04:00;13.05;;;10.60;;
50549;SDS011;36505;52.512;13.460;2022-08-19T11:06:27;13.63;;;10.30;;
50549;SDS011;36505;52.512;13.460;2022-08-19T11:08:53;13.98;;;10.82;;
50549;SDS011;36505;52.512;13.460;2022-08-19T11:11:19;13.35;;;11.10;;
50549;SDS011;36505;52.512;13.460;2022-08-19T11:13:46;19.75;;;11.40;;
50549;SDS011;36505;52.512;13.460;2022-08-19T11:16:14;14.98;;;11.30;;
50549;SDS011;36505;52.512;13.460;2022-08-19T11:18:42;16.10;;;11.02;;
50549;SDS011;36505;52.512;13.460;2022-08-19T11:23:44;17.92;;;9.65;;
50549;SDS011;36505;52.512;13.460;2022-08-19T11:26:11;13.52;;;10.43;;
50549;SDS011;36505;52.512;13.460;2022-08-19T11:28:37;14.30;;;10.18;;
50549;SDS011;36505;52.512;13.460;2022-08-19T11:31:03;15.20;;;10.20;;
50549;SDS011;36505;52.512;13.460;2022-08-19T11:33:32;16.92;;;10.60;;
50549;SDS011;36505;52.512;13.460;2022-08-19T11:35:58;15.07;;;9.57;;
50549;SDS011;36505;52.512;13.460;2022-08-19T11:38:24;13.63;;;9.57;;
50549;SDS011;36505;52.512;13.460;2022-08-19T11:40:54;12.73;;;9.65;;
50549;SDS011;36505;52.512;13.460;2022-08-19T11:43:24;13.27;;;10.25;;
50549;SDS011;36505;52.512;13.460;2022-08-19T11:45:51;15.95;;;9.73;;
50549;SDS011;36505;52.512;13.460;2022-08-19T11:48:16;12.02;;;9.88;;
50549;SDS011;36505;52.512;13.460;2022-08-19T11:50:43;13.98;;;10.23;;
50549;SDS011;36505;52.512;13.460;2022-08-19T11:53:08;17.13;;;11.50;;
50549;SDS011;36505;52.512;13.460;2022-08-19T11:55:38;14.63;;;11.15;;
50549;SDS011;36505;52.512;13.460;2022-08-19T11:58:07;17.60;;;10.80;;
50549;SDS011;36505;52.512;13.460;2022-08-19T12:00:33;12.07;;;9.27;;
50549;SDS011;36505;52.512;13.460;2022-08-19T12:03:00;12.98;;;8.90;;
50549;SDS011;36505;52.512;13.460;2022-08-19T12:05:26;11.07;;;9.48;;
50549;SDS011;36505;52.512;13.460;2022-08-19T12:07:51;13.05;;;9.30;;
50549;SDS011;36505;52.512;13.460;2022-08-19T12:10:17;13.90;;;10.27;;
50549;SDS011;36505;52.512;13.460;2022-08-19T12:12:42;12.60;;;9.63;;
50549;SDS011;36505;52.512;13.460;2022-08-19T12:15:09;9.65;;;7.60;;
50549;SDS011;36505;52.512;13.460;2022-08-19T12:17:35;12.95;;;7.55;;
50549;SDS011;36505;52.512;13.460;2022-08-19T12:20:01;15.77;;;8.98;;
50549;SDS011;36505;52.512;13.460;2022-08-19T12:22:27;12.23;;;8.15;;
50549;SDS011;36505;52.512;13.460;2022-08-19T12:24:53;11.75;;;8.23;;
50549;SDS011;36505;52.512;13.460;2022-08-19T12:27:19;10.00;;;7.40;;
50549;SDS011;36505;52.512;13.460;2022-08-19T12:29:45;10.30;;;7.78;;
50549;SDS011;36505;52.512;13.460;2022-08-19T12:32:10;10.35;;;7.75;;
50549;SDS011;36505;52.512;13.460;2022-08-19T12:34:36;12.52;;;8.70;;
50549;SDS011;36505;52.512;13.460;2022-08-19T12:37:02;10.93;;;7.97;;
50549;SDS011;36505;52.512;13.460;2022-08-19T12:39:33;10.65;;;7.53;;
50549;SDS011;36505;52.512;13.460;2022-08-19T12:42:00;10.15;;;7.63;;
50549;SDS011;36505;52.512;13.460;2022-08-19T12:44:25;9.45;;;7.60;;
50549;SDS011;36505;52.512;13.460;2022-08-19T12:46:50;9.35;;;7.65;;
50549;SDS011;36505;52.512;13.460;2022-08-19T12:49:16;12.30;;;7.40;;
50549;SDS011;36505;52.512;13.460;2022-08-19T12:51:41;7.47;;;6.45;;
50549;SDS011;36505;52.512;13.460;2022-08-19T12:54:07;11.15;;;7.15;;
50549;SDS011;36505;52.512;13.460;2022-08-19T12:56:33;12.25;;;8.13;;
50549;SDS011;36505;52.512;13.460;2022-08-19T12:59:00;8.88;;;7.30;;
50549;SDS011;36505;52.512;13.460;2022-08-19T13:01:27;8.57;;;6.78;;
50549;SDS011;36505;52.512;13.460;2022-08-19T13:03:55;12.40;;;7.93;;
50549;SDS011;36505;52.512;13.460;2022-08-19T13:06:20;9.23;;;6.95;;
50549;SDS011;36505;52.512;13.460;2022-08-19T13:08:46;9.55;;;7.85;;
50549;SDS011;36505;52.512;13.460;2022-08-19T13:11:14;10.43;;;8.40;;
50549;SDS011;36505;52.512;13.460;2022-08-19T13:13:42;11.02;;;8.32;;
50549;SDS011;36505;52.512;13.460;2022-08-19T13:16:10;11.32;;;8.02;;
50549;SDS011;36505;52.512;13.460;2022-08-19T13:18:37;10.57;;;7.60;;
50549;SDS011;36505;52.512;13.460;2022-08-19T13:21:05;10.63;;;7.13;;
50549;SDS011;36505;52.512;13.460;2022-08-19T13:23:31;9.32;;;7.88;;
50549;SDS011;36505;52.512;13.460;2022-08-19T13:25:58;9.00;;;7.22;;
50549;SDS011;36505;52.512;13.460;2022-08-19T13:28:25;11.60;;;7.75;;
50549;SDS011;36505;52.512;13.460;2022-08-19T13:30:50;10.63;;;7.72;;
50549;SDS011;36505;52.512;13.460;2022-08-19T13:33:34;9.05;;;7.22;;
50549;SDS011;36505;52.512;13.460;2022-08-19T13:35:59;13.55;;;8.55;;
50549;SDS011;36505;52.512;13.460;2022-08-19T13:38:26;9.90;;;7.93;;
50549;SDS011;36505;52.512;13.460;2022-08-19T13:40:53;10.50;;;8.43;;
50549;SDS011;36505;52.512;13.460;2022-08-19T13:43:20;10.00;;;8.30;;
50549;SDS011;36505;52.512;13.460;2022-08-19T13:45:48;15.27;;;7.95;;
50549;SDS011;36505;52.512;13.460;2022-08-19T13:48:14;13.00;;;8.73;;
50549;SDS011;36505;52.512;13.460;2022-08-19T13:50:41;12.25;;;8.05;;
50549;SDS011;36505;52.512;13.460;2022-08-19T13:53:08;12.90;;;9.05;;
50549;SDS011;36505;52.512;13.460;2022-08-19T13:55:37;12.35;;;8.85;;
50549;SDS011;36505;52.512;13.460;2022-08-19T13:58:03;10.73;;;8.23;;
50549;SDS011;36505;52.512;13.460;2022-08-19T14:00:31;11.43;;;8.23;;
50549;SDS011;36505;52.512;13.460;2022-08-19T14:02:59;12.15;;;9.30;;
50549;SDS011;36505;52.512;13.460;2022-08-19T14:05:26;11.15;;;8.90;;
50549;SDS011;36505;52.512;13.460;2022-08-19T14:07:53;12.68;;;8.90;;
50549;SDS011;36505;52.512;13.460;2022-08-19T14:10:19;16.58;;;8.32;;
50549;SDS011;36505;52.512;13.460;2022-08-19T14:12:45;10.98;;;8.13;;
50549;SDS011;36505;52.512;13.460;2022-08-19T14:15:11;13.30;;;8.02;;
50549;SDS011;36505;52.512;13.460;2022-08-19T14:17:57;12.80;;;8.48;;
50549;SDS011;36505;52.512;13.460;2022-08-19T14:20:23;10.75;;;8.45;;
50549;SDS011;36505;52.512;13.460;2022-08-19T14:22:49;10.80;;;8.70;;
50549;SDS011;36505;52.512;13.460;2022-08-19T14:25:16;13.05;;;8.57;;
50549;SDS011;36505;52.512;13.460;2022-08-19T14:27:44;13.10;;;8.57;;
50549;SDS011;36505;52.512;13.460;2022-08-19T14:30:11;10.73;;;8.32;;
50549;SDS011;36505;52.512;13.460;2022-08-19T14:32:38;15.38;;;9.68;;
50549;SDS011;36505;52.512;13.460;2022-08-19T14:35:04;10.95;;;8.95;;
50549;SDS011;36505;52.512;13.460;2022-08-19T14:37:30;9.90;;;8.90;;
50549;SDS011;36505;52.512;13.460;2022-08-19T14:39:55;12.68;;;9.18;;
50549;SDS011;36505;52.512;13.460;2022-08-19T14:42:21;17.83;;;9.30;;
50549;SDS011;36505;52.512;13.460;2022-08-19T14:44:46;11.93;;;8.52;;
50549;SDS011;36505;52.512;13.460;2022-08-19T14:47:11;14.13;;;8.55;;
50549;SDS011;36505;52.512;13.460;2022-08-19T14:49:37;11.48;;;9.35;;
50549;SDS011;36505;52.512;13.460;2022-08-19T14:52:04;12.07;;;8.45;;
50549;SDS011;36505;52.512;13.460;2022-08-19T14:54:29;13.63;;;8.80;;
50549;SDS011;36505;52.512;13.460;2022-08-19T14:56:55;11.15;;;9.02;;
50549;SDS011;36505;52.512;13.460;2022-08-19T14:59:20;11.05;;;8.82;;
50549;SDS011;36505;52.512;13.460;2022-08-19T15:01:46;10.30;;;8.38;;
50549;SDS011;36505;52.512;13.460;2022-08-19T15:04:11;14.35;;;8.85;;
50549;SDS011;36505;52.512;13.460;2022-08-19T15:06:37;11.85;;;7.82;;
50549;SDS011;36505;52.512;13.460;2022-08-19T15:09:02;12.35;;;8.70;;